sensor_id;sensor_type;location;lat;lon;timestamp;pressure;altitude;pressure_sealevel;temperature;humidity
72677;BME280;60755;51.374;10.662;2022-07-05T00:00:38;97590.31;;;12.07;74.17
72677;BME280;60755;51.374;10.662;2022-07-05T00:03:04;97593.75;;;12.07;74.12
72677;BME280;60755;51.374;10.662;2022-07-05T00:05:31;97598.44;;;12.05;74.04
72677;BME280;60755;51.374;10.662;2022-07-05T00:07:57;97597.41;;;12.06;74.85
72677;BME280;60755;51.374;10.662;2022-07-05T00:10:24;97602.13;;;12.04;74.14
72677;BME280;60755;51.374;10.662;2022-07-05T00:12:50;97592.03;;;12.01;73.48
72677;BME280;60755;51.374;10.662;2022-07-05T00:15:18;97599.63;;;11.97;75.52
72677;BME280;60755;51.374;10.662;2022-07-05T00:17:44;97606.63;;;11.92;75.80
72677;BME280;60755;51.374;10.662;2022-07-05T00:20:11;97600.22;;;11.88;75.10
72677;BME280;60755;51.374;10.662;2022-07-05T00:22:37;97614.56;;;11.80;75.71
72677;BME280;60755;51.374;10.662;2022-07-05T00:25:04;97616.72;;;11.71;78.05
72677;BME280;60755;51.374;10.662;2022-07-05T00:27:30;97610.06;;;11.69;76.05
72677;BME280;60755;51.374;10.662;2022-07-05T00:29:57;97615.81;;;11.66;76.36
72677;BME280;60755;51.374;10.662;2022-07-05T00:32:24;97608.16;;;11.64;76.12
72677;BME280;60755;51.374;10.662;2022-07-05T00:34:51;97618.22;;;11.67;75.34
72677;BME280;60755;51.374;10.662;2022-07-05T00:37:17;97610.31;;;11.67;74.60
72677;BME280;60755;51.374;10.662;2022-07-05T00:39:44;97612.94;;;11.67;75.82
72677;BME280;60755;51.374;10.662;2022-07-05T00:42:11;97613.97;;;11.66;76.53
72677;BME280;60755;51.374;10.662;2022-07-05T00:44:38;97607.47;;;11.57;77.62
72677;BME280;60755;51.374;10.662;2022-07-05T00:47:08;97616.97;;;11.58;76.72
72677;BME280;60755;51.374;10.662;2022-07-05T00:49:37;97615.72;;;11.49;77.90
72677;BME280;60755;51.374;10.662;2022-07-05T00:52:04;97613.53;;;11.46;78.07
72677;BME280;60755;51.374;10.662;2022-07-05T00:54:33;97612.06;;;11.50;77.31
72677;BME280;60755;51.374;10.662;2022-07-05T00:57:01;97614.94;;;11.48;76.23
72677;BME280;60755;51.374;10.662;2022-07-05T00:59:29;97613.91;;;11.49;76.77
72677;BME280;60755;51.374;10.662;2022-07-05T01:01:56;97614.94;;;11.48;77.00
72677;BME280;60755;51.374;10.662;2022-07-05T01:04:23;97613.09;;;11.49;77.35
72677;BME280;60755;51.374;10.662;2022-07-05T01:06:51;97612.53;;;11.47;77.24
72677;BME280;60755;51.374;10.662;2022-07-05T01:09:19;97610.69;;;11.47;76.33
72677;BME280;60755;51.374;10.662;2022-07-05T01:11:47;97612.06;;;11.38;75.65
72677;BME280;60755;51.374;10.662;2022-07-05T01:14:17;97611.97;;;11.33;76.73
72677;BME280;60755;51.374;10.662;2022-07-05T01:16:45;97619.16;;;11.26;76.31
72677;BME280;60755;51.374;10.662;2022-07-05T01:19:12;97623.88;;;11.24;77.21
72677;BME280;60755;51.374;10.662;2022-07-05T01:21:40;97616.75;;;11.13;77.64
72677;BME280;60755;51.374;10.662;2022-07-05T01:24:09;97611.84;;;11.05;76.52
72677;BME280;60755;51.374;10.662;2022-07-05T01:26:37;97620.63;;;10.99;76.56
72677;BME280;60755;51.374;10.662;2022-07-05T01:29:04;97605.69;;;10.99;77.21
72677;BME280;60755;51.374;10.662;2022-07-05T01:31:32;97606.81;;;11.03;78.84
72677;BME280;60755;51.374;10.662;2022-07-05T01:33:59;97607.63;;;10.92;77.69
72677;BME280;60755;51.374;10.662;2022-07-05T01:36:26;97606.22;;;10.89;78.12
72677;BME280;60755;51.374;10.662;2022-07-05T01:38:52;97604.53;;;10.95;77.94
72677;BME280;60755;51.374;10.662;2022-07-05T01:41:20;97604.53;;;10.95;78.52
72677;BME280;60755;51.374;10.662;2022-07-05T01:43:46;97601.56;;;10.91;77.08
72677;BME280;60755;51.374;10.662;2022-07-05T01:46:15;97598.13;;;10.91;78.00
72677;BME280;60755;51.374;10.662;2022-07-05T01:48:43;97600.84;;;10.96;76.49
72677;BME280;60755;51.374;10.662;2022-07-05T01:51:18;97592.53;;;10.99;76.53
72677;BME280;60755;51.374;10.662;2022-07-05T01:53:46;97595.16;;;10.99;77.27
72677;BME280;60755;51.374;10.662;2022-07-05T01:56:14;97588.88;;;11.00;76.91
72677;BME280;60755;51.374;10.662;2022-07-05T01:58:42;97584.50;;;10.94;79.72
72677;BME280;60755;51.374;10.662;2022-07-05T02:01:11;97588.03;;;10.88;79.08
72677;BME280;60755;51.374;10.662;2022-07-05T02:03:39;97590.00;;;10.92;78.89
72677;BME280;60755;51.374;10.662;2022-07-05T02:06:06;97584.66;;;10.99;79.27
72677;BME280;60755;51.374;10.662;2022-07-05T02:08:35;97586.25;;;11.00;79.42
72677;BME280;60755;51.374;10.662;2022-07-05T02:13:29;97589.91;;;10.99;78.73
72677;BME280;60755;51.374;10.662;2022-07-05T02:15:57;97586.34;;;10.93;79.38
72677;BME280;60755;51.374;10.662;2022-07-05T02:18:23;97587.72;;;10.96;79.07
72677;BME280;60755;51.374;10.662;2022-07-05T02:20:49;97591.13;;;10.97;78.15
72677;BME280;60755;51.374;10.662;2022-07-05T02:23:16;97583.81;;;10.99;78.56
72677;BME280;60755;51.374;10.662;2022-07-05T02:25:42;97587.38;;;11.04;78.13
72677;BME280;60755;51.374;10.662;2022-07-05T02:28:09;97584.88;;;11.09;78.09
72677;BME280;60755;51.374;10.662;2022-07-05T02:30:35;97587.25;;;11.11;77.60
72677;BME280;60755;51.374;10.662;2022-07-05T02:33:03;97587.38;;;11.16;77.99
72677;BME280;60755;51.374;10.662;2022-07-05T02:35:29;97586.00;;;11.13;78.48
72677;BME280;60755;51.374;10.662;2022-07-05T02:37:56;97586.69;;;11.09;79.46
72677;BME280;60755;51.374;10.662;2022-07-05T02:40:22;97583.84;;;11.10;80.30
72677;BME280;60755;51.374;10.662;2022-07-05T02:42:48;97589.66;;;11.12;79.29
72677;BME280;60755;51.374;10.662;2022-07-05T02:45:15;97585.44;;;11.23;76.21
72677;BME280;60755;51.374;10.662;2022-07-05T02:47:41;97590.91;;;11.33;75.61
72677;BME280;60755;51.374;10.662;2022-07-05T02:50:10;97594.09;;;11.35;76.91
72677;BME280;60755;51.374;10.662;2022-07-05T02:52:37;97595.25;;;11.39;76.66
72677;BME280;60755;51.374;10.662;2022-07-05T02:55:05;97598.91;;;11.38;76.31
72677;BME280;60755;51.374;10.662;2022-07-05T02:57:31;97588.03;;;11.35;77.89
72677;BME280;60755;51.374;10.662;2022-07-05T02:59:58;97588.03;;;11.35;78.00
72677;BME280;60755;51.374;10.662;2022-07-05T03:02:24;97589.09;;;11.34;79.32
72677;BME280;60755;51.374;10.662;2022-07-05T03:04:51;97588.63;;;11.37;77.91
72677;BME280;60755;51.374;10.662;2022-07-05T03:07:18;97586.91;;;11.42;77.84
72677;BME280;60755;51.374;10.662;2022-07-05T03:09:45;97592.03;;;11.37;76.61
72677;BME280;60755;51.374;10.662;2022-07-05T03:12:11;97591.91;;;11.44;77.35
72677;BME280;60755;51.374;10.662;2022-07-05T03:14:38;97593.75;;;11.43;77.56
72677;BME280;60755;51.374;10.662;2022-07-05T03:17:04;97597.88;;;11.51;77.75
72677;BME280;60755;51.374;10.662;2022-07-05T03:19:30;97600.13;;;11.59;77.06
72677;BME280;60755;51.374;10.662;2022-07-05T03:21:57;97599.09;;;11.60;75.97
72677;BME280;60755;51.374;10.662;2022-07-05T03:24:25;97594.78;;;12.06;74.89
72677;BME280;60755;51.374;10.662;2022-07-05T03:26:51;97598.41;;;12.17;73.37
72677;BME280;60755;51.374;10.662;2022-07-05T03:29:18;97594.66;;;12.13;75.22
72677;BME280;60755;51.374;10.662;2022-07-05T03:31:44;97592.91;;;12.35;74.69
72677;BME280;60755;51.374;10.662;2022-07-05T03:34:11;97594.81;;;13.02;71.99
72677;BME280;60755;51.374;10.662;2022-07-05T03:36:37;97603.94;;;13.66;68.61
72677;BME280;60755;51.374;10.662;2022-07-05T03:39:04;97599.13;;;14.34;65.33
72677;BME280;60755;51.374;10.662;2022-07-05T03:41:31;97594.03;;;15.19;64.79
72677;BME280;60755;51.374;10.662;2022-07-05T03:43:58;97595.06;;;15.60;62.75
72677;BME280;60755;51.374;10.662;2022-07-05T03:46:24;97603.50;;;16.09;62.07
72677;BME280;60755;51.374;10.662;2022-07-05T03:48:51;97599.88;;;16.66;59.02
72677;BME280;60755;51.374;10.662;2022-07-05T03:51:17;97604.16;;;16.98;58.58
72677;BME280;60755;51.374;10.662;2022-07-05T03:53:44;97609.44;;;17.39;58.65
72677;BME280;60755;51.374;10.662;2022-07-05T03:56:10;97608.19;;;18.01;57.06
72677;BME280;60755;51.374;10.662;2022-07-05T03:58:38;97606.72;;;18.73;55.25
72677;BME280;60755;51.374;10.662;2022-07-05T04:01:04;97601.69;;;19.35;53.86
72677;BME280;60755;51.374;10.662;2022-07-05T04:03:31;97601.38;;;19.36;51.87
72677;BME280;60755;51.374;10.662;2022-07-05T04:05:57;97606.97;;;20.68;50.96
72677;BME280;60755;51.374;10.662;2022-07-05T04:08:24;97607.03;;;21.14;48.21
72677;BME280;60755;51.374;10.662;2022-07-05T04:10:50;97604.44;;;21.69;47.70
72677;BME280;60755;51.374;10.662;2022-07-05T04:13:16;97604.19;;;22.34;44.64
72677;BME280;60755;51.374;10.662;2022-07-05T04:15:44;97606.81;;;22.62;44.60
72677;BME280;60755;51.374;10.662;2022-07-05T04:18:10;97611.16;;;22.94;44.75
72677;BME280;60755;51.374;10.662;2022-07-05T04:20:37;97612.59;;;23.54;42.06
72677;BME280;60755;51.374;10.662;2022-07-05T04:23:03;97611.44;;;23.77;40.92
72677;BME280;60755;51.374;10.662;2022-07-05T04:25:29;97610.75;;;24.28;39.86
72677;BME280;60755;51.374;10.662;2022-07-05T04:27:56;97622.50;;;24.76;39.47
72677;BME280;60755;51.374;10.662;2022-07-05T04:30:25;97617.59;;;25.13;38.51
72677;BME280;60755;51.374;10.662;2022-07-05T04:32:53;97607.13;;;25.20;38.92
72677;BME280;60755;51.374;10.662;2022-07-05T04:35:20;97604.66;;;25.91;37.30
72677;BME280;60755;51.374;10.662;2022-07-05T04:37:46;97612.63;;;25.79;38.74
72677;BME280;60755;51.374;10.662;2022-07-05T04:40:13;97613.69;;;26.45;38.20
72677;BME280;60755;51.374;10.662;2022-07-05T04:42:40;97622.53;;;27.09;35.78
72677;BME280;60755;51.374;10.662;2022-07-05T04:45:07;97629.34;;;27.39;34.98
72677;BME280;60755;51.374;10.662;2022-07-05T04:47:34;97625.91;;;27.63;34.51
72677;BME280;60755;51.374;10.662;2022-07-05T04:50:03;97629.31;;;27.72;34.97
72677;BME280;60755;51.374;10.662;2022-07-05T04:52:30;97632.78;;;27.97;34.29
72677;BME280;60755;51.374;10.662;2022-07-05T04:54:56;97631.19;;;28.21;35.32
72677;BME280;60755;51.374;10.662;2022-07-05T04:57:23;97628.53;;;28.08;35.87
72677;BME280;60755;51.374;10.662;2022-07-05T04:59:49;97639.91;;;27.77;37.06
72677;BME280;60755;51.374;10.662;2022-07-05T05:02:15;97630.97;;;28.78;34.56
72677;BME280;60755;51.374;10.662;2022-07-05T05:04:42;97638.00;;;28.67;33.68
72677;BME280;60755;51.374;10.662;2022-07-05T05:07:10;97635.13;;;27.04;36.98
72677;BME280;60755;51.374;10.662;2022-07-05T05:09:36;97642.91;;;26.05;39.14
72677;BME280;60755;51.374;10.662;2022-07-05T05:12:04;97632.28;;;25.71;43.01
72677;BME280;60755;51.374;10.662;2022-07-05T05:14:31;97640.88;;;26.32;41.67
72677;BME280;60755;51.374;10.662;2022-07-05T05:16:57;97635.16;;;25.10;42.37
72677;BME280;60755;51.374;10.662;2022-07-05T05:19:24;97643.88;;;24.46;43.16
72677;BME280;60755;51.374;10.662;2022-07-05T05:21:50;97638.97;;;24.66;44.45
72677;BME280;60755;51.374;10.662;2022-07-05T05:24:18;97646.22;;;25.00;43.98
72677;BME280;60755;51.374;10.662;2022-07-05T05:26:44;97644.72;;;26.72;41.14
72677;BME280;60755;51.374;10.662;2022-07-05T05:29:11;97643.38;;;28.39;37.54
72677;BME280;60755;51.374;10.662;2022-07-05T05:31:37;97649.53;;;29.95;33.37
72677;BME280;60755;51.374;10.662;2022-07-05T05:34:04;97649.03;;;30.95;31.77
72677;BME280;60755;51.374;10.662;2022-07-05T05:36:30;97653.50;;;31.68;31.87
72677;BME280;60755;51.374;10.662;2022-07-05T05:38:56;97657.63;;;31.82;31.72
72677;BME280;60755;51.374;10.662;2022-07-05T05:41:24;97657.78;;;32.42;29.51
72677;BME280;60755;51.374;10.662;2022-07-05T05:43:50;97657.16;;;32.29;30.63
72677;BME280;60755;51.374;10.662;2022-07-05T05:46:17;97663.34;;;32.52;31.31
72677;BME280;60755;51.374;10.662;2022-07-05T05:48:43;97665.03;;;31.39;30.28
72677;BME280;60755;51.374;10.662;2022-07-05T05:51:09;97667.28;;;32.55;28.78
72677;BME280;60755;51.374;10.662;2022-07-05T05:53:36;97662.56;;;32.25;28.75
72677;BME280;60755;51.374;10.662;2022-07-05T05:56:02;97668.44;;;33.14;28.10
72677;BME280;60755;51.374;10.662;2022-07-05T05:58:30;97679.31;;;33.48;28.68
72677;BME280;60755;51.374;10.662;2022-07-05T06:00:56;97674.38;;;34.08;27.13
72677;BME280;60755;51.374;10.662;2022-07-05T06:03:25;97668.13;;;34.59;25.82
72677;BME280;60755;51.374;10.662;2022-07-05T06:05:51;97682.59;;;34.70;26.26
72677;BME280;60755;51.374;10.662;2022-07-05T06:08:18;97676.97;;;35.29;24.74
72677;BME280;60755;51.374;10.662;2022-07-05T06:10:45;97686.03;;;35.51;24.37
72677;BME280;60755;51.374;10.662;2022-07-05T06:13:13;97679.81;;;35.54;23.90
72677;BME280;60755;51.374;10.662;2022-07-05T06:15:42;97680.19;;;35.59;24.38
72677;BME280;60755;51.374;10.662;2022-07-05T06:18:10;97685.13;;;33.87;25.79
72677;BME280;60755;51.374;10.662;2022-07-05T06:20:37;97688.94;;;32.48;25.95
72677;BME280;60755;51.374;10.662;2022-07-05T06:23:05;97689.13;;;31.21;29.24
72677;BME280;60755;51.374;10.662;2022-07-05T06:25:33;97684.09;;;31.42;29.64
72677;BME280;60755;51.374;10.662;2022-07-05T06:28:03;97690.13;;;29.76;30.86
72677;BME280;60755;51.374;10.662;2022-07-05T06:30:31;97701.19;;;29.55;31.96
72677;BME280;60755;51.374;10.662;2022-07-05T06:32:59;97697.44;;;31.51;28.20
72677;BME280;60755;51.374;10.662;2022-07-05T06:35:26;97700.41;;;31.65;29.79
72677;BME280;60755;51.374;10.662;2022-07-05T06:37:54;97706.59;;;33.18;28.09
72677;BME280;60755;51.374;10.662;2022-07-05T06:40:23;97700.34;;;33.51;25.24
72677;BME280;60755;51.374;10.662;2022-07-05T06:42:50;97705.88;;;32.64;27.61
72677;BME280;60755;51.374;10.662;2022-07-05T06:45:19;97704.25;;;31.61;28.01
72677;BME280;60755;51.374;10.662;2022-07-05T06:47:53;97706.97;;;29.41;30.03
72677;BME280;60755;51.374;10.662;2022-07-05T06:50:22;97706.69;;;27.23;34.09
72677;BME280;60755;51.374;10.662;2022-07-05T06:52:48;97703.13;;;26.68;35.17
72677;BME280;60755;51.374;10.662;2022-07-05T06:55:15;97703.41;;;27.17;35.05
72677;BME280;60755;51.374;10.662;2022-07-05T06:57:41;97708.19;;;29.28;31.59
72677;BME280;60755;51.374;10.662;2022-07-05T07:00:09;97699.66;;;30.01;31.55
72677;BME280;60755;51.374;10.662;2022-07-05T07:02:36;97701.03;;;29.64;32.38
72677;BME280;60755;51.374;10.662;2022-07-05T07:05:03;97701.78;;;30.59;31.37
72677;BME280;60755;51.374;10.662;2022-07-05T07:07:31;97704.06;;;32.19;30.94
72677;BME280;60755;51.374;10.662;2022-07-05T07:10:15;97706.66;;;32.35;29.53
72677;BME280;60755;51.374;10.662;2022-07-05T07:12:42;97702.44;;;31.91;31.77
72677;BME280;60755;51.374;10.662;2022-07-05T07:15:09;97704.09;;;31.54;30.39
72677;BME280;60755;51.374;10.662;2022-07-05T07:17:35;97705.91;;;29.30;33.57
72677;BME280;60755;51.374;10.662;2022-07-05T07:20:02;97714.41;;;27.91;37.37
72677;BME280;60755;51.374;10.662;2022-07-05T07:22:29;97706.94;;;26.08;43.88
72677;BME280;60755;51.374;10.662;2022-07-05T07:24:56;97705.00;;;28.09;37.38
72677;BME280;60755;51.374;10.662;2022-07-05T07:27:23;97704.13;;;30.60;33.87
72677;BME280;60755;51.374;10.662;2022-07-05T07:29:49;97712.72;;;31.59;29.33
72677;BME280;60755;51.374;10.662;2022-07-05T07:32:15;97711.66;;;31.64;30.48
72677;BME280;60755;51.374;10.662;2022-07-05T07:34:44;97721.09;;;32.16;29.58
72677;BME280;60755;51.374;10.662;2022-07-05T07:37:10;97712.66;;;33.71;26.21
72677;BME280;60755;51.374;10.662;2022-07-05T07:39:38;97717.63;;;33.62;26.17
72677;BME280;60755;51.374;10.662;2022-07-05T07:42:07;97710.34;;;30.10;30.08
72677;BME280;60755;51.374;10.662;2022-07-05T07:44:34;97719.72;;;27.87;34.96
72677;BME280;60755;51.374;10.662;2022-07-05T07:47:00;97714.59;;;27.07;39.34
72677;BME280;60755;51.374;10.662;2022-07-05T07:49:26;97709.16;;;26.06;38.75
72677;BME280;60755;51.374;10.662;2022-07-05T07:51:53;97713.25;;;26.12;40.47
72677;BME280;60755;51.374;10.662;2022-07-05T07:54:20;97717.25;;;26.36;41.96
72677;BME280;60755;51.374;10.662;2022-07-05T07:56:46;97710.13;;;25.37;41.12
72677;BME280;60755;51.374;10.662;2022-07-05T07:59:14;97717.47;;;24.37;41.24
72677;BME280;60755;51.374;10.662;2022-07-05T08:01:40;97712.66;;;24.65;40.44
72677;BME280;60755;51.374;10.662;2022-07-05T08:04:07;97712.88;;;25.12;39.11
72677;BME280;60755;51.374;10.662;2022-07-05T08:06:33;97716.44;;;24.64;39.42
72677;BME280;60755;51.374;10.662;2022-07-05T08:09:00;97719.28;;;24.67;39.29
72677;BME280;60755;51.374;10.662;2022-07-05T08:11:29;97719.75;;;24.78;38.28
72677;BME280;60755;51.374;10.662;2022-07-05T08:13:56;97710.66;;;24.31;41.43
72677;BME280;60755;51.374;10.662;2022-07-05T08:16:24;97714.88;;;24.89;41.58
72677;BME280;60755;51.374;10.662;2022-07-05T08:18:50;97713.31;;;24.79;39.21
72677;BME280;60755;51.374;10.662;2022-07-05T08:21:34;97714.09;;;25.23;41.98
72677;BME280;60755;51.374;10.662;2022-07-05T08:24:04;97712.06;;;25.20;43.37
72677;BME280;60755;51.374;10.662;2022-07-05T08:26:31;97713.28;;;24.22;41.44
72677;BME280;60755;51.374;10.662;2022-07-05T08:28:59;97711.78;;;24.38;39.29
72677;BME280;60755;51.374;10.662;2022-07-05T08:31:28;97710.25;;;22.85;43.05
72677;BME280;60755;51.374;10.662;2022-07-05T08:33:56;97709.50;;;22.57;42.54
72677;BME280;60755;51.374;10.662;2022-07-05T08:36:23;97700.03;;;22.10;43.91
72677;BME280;60755;51.374;10.662;2022-07-05T08:38:49;97705.97;;;22.07;44.68
72677;BME280;60755;51.374;10.662;2022-07-05T08:41:19;97699.25;;;22.23;45.65
72677;BME280;60755;51.374;10.662;2022-07-05T08:43:46;97702.41;;;22.12;45.63
72677;BME280;60755;51.374;10.662;2022-07-05T08:46:14;97703.19;;;22.40;43.71
72677;BME280;60755;51.374;10.662;2022-07-05T08:48:44;97702.19;;;22.36;43.34
72677;BME280;60755;51.374;10.662;2022-07-05T08:51:13;97704.56;;;23.23;41.74
72677;BME280;60755;51.374;10.662;2022-07-05T08:53:42;97707.41;;;24.60;38.62
72677;BME280;60755;51.374;10.662;2022-07-05T08:56:11;97703.81;;;24.99;38.34
72677;BME280;60755;51.374;10.662;2022-07-05T08:58:38;97700.81;;;25.35;38.92
72677;BME280;60755;51.374;10.662;2022-07-05T09:01:06;97699.84;;;24.96;38.12
72677;BME280;60755;51.374;10.662;2022-07-05T09:03:38;97697.38;;;23.86;42.17
72677;BME280;60755;51.374;10.662;2022-07-05T09:06:09;97702.41;;;23.79;42.45
72677;BME280;60755;51.374;10.662;2022-07-05T09:08:37;97697.25;;;23.60;41.66
72677;BME280;60755;51.374;10.662;2022-07-05T09:11:05;97695.97;;;22.76;44.15
72677;BME280;60755;51.374;10.662;2022-07-05T09:13:33;97699.06;;;23.51;43.08
72677;BME280;60755;51.374;10.662;2022-07-05T09:16:00;97690.06;;;23.24;42.53
72677;BME280;60755;51.374;10.662;2022-07-05T09:18:38;97701.75;;;24.21;43.90
72677;BME280;60755;51.374;10.662;2022-07-05T09:21:16;97701.91;;;24.73;42.37
72677;BME280;60755;51.374;10.662;2022-07-05T09:23:43;97697.09;;;25.57;41.92
72677;BME280;60755;51.374;10.662;2022-07-05T09:26:09;97700.25;;;26.14;40.97
72677;BME280;60755;51.374;10.662;2022-07-05T09:28:36;97693.41;;;25.87;37.97
72677;BME280;60755;51.374;10.662;2022-07-05T09:31:03;97697.88;;;25.83;38.75
72677;BME280;60755;51.374;10.662;2022-07-05T09:33:29;97702.69;;;24.91;40.64
72677;BME280;60755;51.374;10.662;2022-07-05T09:35:56;97695.59;;;24.21;41.58
72677;BME280;60755;51.374;10.662;2022-07-05T09:38:25;97699.44;;;23.35;42.77
72677;BME280;60755;51.374;10.662;2022-07-05T09:40:52;97705.19;;;22.20;45.75
72677;BME280;60755;51.374;10.662;2022-07-05T09:43:20;97703.75;;;21.68;45.74
72677;BME280;60755;51.374;10.662;2022-07-05T09:45:54;97705.34;;;21.83;46.56
72677;BME280;60755;51.374;10.662;2022-07-05T09:48:22;97706.34;;;21.87;46.14
72677;BME280;60755;51.374;10.662;2022-07-05T09:50:51;97696.28;;;22.61;45.22
72677;BME280;60755;51.374;10.662;2022-07-05T09:53:18;97693.47;;;23.16;44.10
72677;BME280;60755;51.374;10.662;2022-07-05T09:55:59;97689.69;;;23.17;42.61
72677;BME280;60755;51.374;10.662;2022-07-05T09:58:26;97689.91;;;22.34;43.01
72677;BME280;60755;51.374;10.662;2022-07-05T10:00:52;97685.38;;;22.71;44.02
72677;BME280;60755;51.374;10.662;2022-07-05T10:03:19;97687.75;;;22.73;43.07
72677;BME280;60755;51.374;10.662;2022-07-05T10:05:46;97684.38;;;22.31;41.18
72677;BME280;60755;51.374;10.662;2022-07-05T10:08:12;97689.63;;;22.86;41.79
72677;BME280;60755;51.374;10.662;2022-07-05T10:10:41;97693.38;;;23.75;41.00
72677;BME280;60755;51.374;10.662;2022-07-05T10:13:13;97689.13;;;24.22;39.72
72677;BME280;60755;51.374;10.662;2022-07-05T10:15:41;97686.13;;;24.15;39.43
72677;BME280;60755;51.374;10.662;2022-07-05T10:18:11;97687.34;;;24.09;40.15
72677;BME280;60755;51.374;10.662;2022-07-05T10:20:39;97689.84;;;24.62;39.37
72677;BME280;60755;51.374;10.662;2022-07-05T10:23:08;97688.94;;;25.10;36.88
72677;BME280;60755;51.374;10.662;2022-07-05T10:25:35;97684.91;;;25.59;36.86
72677;BME280;60755;51.374;10.662;2022-07-05T10:28:03;97673.06;;;26.28;37.40
72677;BME280;60755;51.374;10.662;2022-07-05T10:30:32;97691.00;;;25.30;38.38
72677;BME280;60755;51.374;10.662;2022-07-05T10:32:59;97687.06;;;25.10;38.14
72677;BME280;60755;51.374;10.662;2022-07-05T10:35:27;97682.97;;;24.30;38.60
72677;BME280;60755;51.374;10.662;2022-07-05T10:37:53;97680.78;;;24.23;39.23
72677;BME280;60755;51.374;10.662;2022-07-05T10:40:20;97690.13;;;23.86;40.34
72677;BME280;60755;51.374;10.662;2022-07-05T10:42:48;97692.75;;;22.52;43.43
72677;BME280;60755;51.374;10.662;2022-07-05T10:45:25;97700.63;;;22.34;45.38
72677;BME280;60755;51.374;10.662;2022-07-05T10:48:16;97703.28;;;22.21;45.51
72677;BME280;60755;51.374;10.662;2022-07-05T10:50:44;97697.41;;;22.60;45.11
72677;BME280;60755;51.374;10.662;2022-07-05T10:53:11;97689.75;;;23.03;43.65
72677;BME280;60755;51.374;10.662;2022-07-05T10:55:50;97693.72;;;23.28;42.63
72677;BME280;60755;51.374;10.662;2022-07-05T10:58:35;97681.91;;;22.71;42.89
72677;BME280;60755;51.374;10.662;2022-07-05T11:04:19;97688.47;;;23.68;43.27
72677;BME280;60755;51.374;10.662;2022-07-05T11:06:45;97685.00;;;23.45;42.60
72677;BME280;60755;51.374;10.662;2022-07-05T11:09:16;97684.59;;;23.83;41.99
72677;BME280;60755;51.374;10.662;2022-07-05T11:11:44;97688.84;;;23.08;40.93
72677;BME280;60755;51.374;10.662;2022-07-05T11:14:32;97678.34;;;23.73;40.36
72677;BME280;60755;51.374;10.662;2022-07-05T11:17:22;97685.34;;;24.14;39.67
72677;BME280;60755;51.374;10.662;2022-07-05T11:20:04;97685.91;;;24.60;40.37
72677;BME280;60755;51.374;10.662;2022-07-05T11:22:32;97674.13;;;25.77;36.27
72677;BME280;60755;51.374;10.662;2022-07-05T11:25:00;97674.72;;;25.09;36.73
72677;BME280;60755;51.374;10.662;2022-07-05T11:27:27;97674.28;;;24.16;39.13
72677;BME280;60755;51.374;10.662;2022-07-05T11:29:54;97677.34;;;23.92;39.49
72677;BME280;60755;51.374;10.662;2022-07-05T11:32:22;97668.66;;;23.33;41.25
72677;BME280;60755;51.374;10.662;2022-07-05T11:34:52;97667.44;;;24.10;39.10
72677;BME280;60755;51.374;10.662;2022-07-05T11:37:21;97662.75;;;24.24;37.32
72677;BME280;60755;51.374;10.662;2022-07-05T11:40:25;97671.00;;;24.36;36.99
72677;BME280;60755;51.374;10.662;2022-07-05T11:42:53;97673.09;;;25.00;36.46
72677;BME280;60755;51.374;10.662;2022-07-05T11:45:19;97663.34;;;26.06;36.08
72677;BME280;60755;51.374;10.662;2022-07-05T11:47:46;97665.19;;;25.29;37.78
72677;BME280;60755;51.374;10.662;2022-07-05T11:50:13;97665.22;;;25.21;37.35
72677;BME280;60755;51.374;10.662;2022-07-05T11:52:41;97659.34;;;24.49;38.40
72677;BME280;60755;51.374;10.662;2022-07-05T11:55:09;97652.34;;;24.31;37.92
72677;BME280;60755;51.374;10.662;2022-07-05T11:57:37;97654.41;;;24.34;39.40
72677;BME280;60755;51.374;10.662;2022-07-05T12:00:24;97654.09;;;23.87;39.74
72677;BME280;60755;51.374;10.662;2022-07-05T12:02:51;97643.69;;;23.86;39.63
72677;BME280;60755;51.374;10.662;2022-07-05T12:05:18;97649.44;;;23.62;38.17
72677;BME280;60755;51.374;10.662;2022-07-05T12:07:49;97646.66;;;23.76;37.87
72677;BME280;60755;51.374;10.662;2022-07-05T12:10:16;97644.94;;;24.45;38.45
72677;BME280;60755;51.374;10.662;2022-07-05T12:13:03;97653.97;;;24.67;38.03
72677;BME280;60755;51.374;10.662;2022-07-05T12:15:30;97642.72;;;25.25;34.88
72677;BME280;60755;51.374;10.662;2022-07-05T12:18:00;97634.34;;;24.92;37.44
72677;BME280;60755;51.374;10.662;2022-07-05T12:20:29;97634.19;;;25.23;38.46
72677;BME280;60755;51.374;10.662;2022-07-05T12:22:56;97636.78;;;25.49;35.61
72677;BME280;60755;51.374;10.662;2022-07-05T12:25:24;97641.88;;;25.42;35.25
72677;BME280;60755;51.374;10.662;2022-07-05T12:27:53;97636.09;;;25.78;36.68
72677;BME280;60755;51.374;10.662;2022-07-05T12:30:20;97637.13;;;25.48;37.24
72677;BME280;60755;51.374;10.662;2022-07-05T12:32:57;97641.97;;;24.73;36.51
72677;BME280;60755;51.374;10.662;2022-07-05T12:35:34;97637.41;;;23.28;38.52
72677;BME280;60755;51.374;10.662;2022-07-05T12:38:04;97630.63;;;23.62;38.60
72677;BME280;60755;51.374;10.662;2022-07-05T12:40:31;97639.34;;;24.07;39.83
72677;BME280;60755;51.374;10.662;2022-07-05T12:43:02;97627.75;;;24.64;39.87
72677;BME280;60755;51.374;10.662;2022-07-05T12:45:29;97637.22;;;24.70;38.94
72677;BME280;60755;51.374;10.662;2022-07-05T12:47:57;97634.97;;;25.79;39.22
72677;BME280;60755;51.374;10.662;2022-07-05T12:50:25;97637.78;;;25.91;35.87
72677;BME280;60755;51.374;10.662;2022-07-05T12:52:57;97628.47;;;25.25;36.30
72677;BME280;60755;51.374;10.662;2022-07-05T12:55:25;97626.28;;;25.09;35.58
72677;BME280;60755;51.374;10.662;2022-07-05T12:58:08;97625.97;;;24.94;36.16
72677;BME280;60755;51.374;10.662;2022-07-05T13:00:35;97622.69;;;24.79;36.63